createdAt,value
2022-10-05T00:00:58.637Z,12.80
2022-10-05T00:03:28.877Z,13.60
2022-10-05T00:05:58.765Z,17.48
2022-10-05T00:08:30.263Z,11.80
2022-10-05T00:11:00.139Z,15.60
2022-10-05T00:13:32.070Z,17.33
2022-10-05T00:16:07.979Z,13.07
2022-10-05T00:18:37.876Z,18.20
2022-10-05T00:21:36.693Z,16.48
2022-10-05T00:24:06.651Z,21.02
2022-10-05T00:26:36.342Z,27.65
2022-10-05T00:29:09.438Z,20.15
2022-10-05T00:31:40.250Z,21.23
2022-10-05T00:34:09.899Z,19.83
2022-10-05T00:36:44.257Z,17.30
2022-10-05T00:39:13.983Z,24.85
2022-10-05T00:41:49.828Z,17.15
2022-10-05T00:44:37.639Z,14.80
2022-10-05T00:47:10.357Z,25.25
2022-10-05T00:49:52.557Z,15.48
2022-10-05T00:52:36.952Z,12.10
2022-10-05T00:55:26.616Z,14.05
2022-10-05T00:58:14.783Z,11.80
2022-10-05T01:00:48.480Z,11.53
2022-10-05T01:03:29.147Z,18.92
2022-10-05T01:05:58.834Z,21.45
2022-10-05T01:08:34.780Z,11.05
2022-10-05T01:11:04.385Z,19.15
2022-10-05T01:13:40.479Z,13.60
2022-10-05T01:16:14.368Z,11.77
2022-10-05T01:18:56.822Z,12.18
2022-10-05T01:21:27.624Z,16.42
2022-10-05T01:24:17.101Z,12.93
2022-10-05T01:27:10.799Z,14.43
2022-10-05T01:29:50.880Z,11.50
2022-10-05T01:32:27.786Z,9.70
2022-10-05T01:35:19.822Z,10.77
2022-10-05T01:38:01.689Z,17.50
2022-10-05T01:40:38.235Z,12.45
2022-10-05T01:43:29.421Z,6.43
2022-10-05T01:46:01.717Z,4.28
2022-10-05T01:48:36.212Z,8.35
2022-10-05T01:51:06.570Z,10.95
2022-10-05T01:53:42.481Z,6.47
2022-10-05T01:56:30.553Z,5.43
2022-10-05T01:59:00.222Z,5.43
2022-10-05T02:01:29.997Z,5.45
2022-10-05T02:04:56.409Z,7.10
2022-10-05T02:07:19.494Z,6.55
2022-10-05T02:09:57.127Z,6.43
2022-10-05T02:12:27.464Z,4.15
2022-10-05T02:14:58.230Z,6.93
2022-10-05T02:17:33.748Z,2.47
2022-10-05T02:20:04.912Z,3.45
2022-10-05T02:22:48.455Z,4.22
2022-10-05T02:25:19.566Z,1.90
2022-10-05T02:27:59.727Z,2.78
2022-10-05T02:30:29.579Z,4.00
2022-10-05T02:33:01.610Z,4.00
2022-10-05T02:35:31.255Z,1.35
2022-10-05T02:38:08.027Z,1.48
2022-10-05T02:40:37.768Z,3.28
2022-10-05T02:43:29.312Z,1.20
2022-10-05T02:45:59.406Z,6.88
2022-10-05T02:48:47.594Z,2.78
2022-10-05T02:51:24.113Z,2.28
2022-10-05T02:53:53.954Z,1.23
2022-10-05T02:56:23.726Z,1.95
2022-10-05T02:59:05.406Z,4.95
2022-10-05T03:01:35.597Z,1.63
2022-10-05T03:04:26.527Z,3.42
2022-10-05T03:07:00.097Z,1.63
2022-10-05T03:09:30.323Z,1.58
2022-10-05T03:12:00.398Z,6.90
2022-10-05T03:14:34.088Z,2.08
2022-10-05T03:17:03.773Z,3.40
2022-10-05T03:20:08.830Z,3.58
2022-10-05T03:22:48.307Z,2.67
2022-10-05T03:25:36.509Z,3.33
2022-10-05T03:28:24.801Z,3.00
2022-10-05T03:31:15.487Z,5.53
2022-10-05T03:34:05.731Z,1.50
2022-10-05T03:36:44.495Z,2.45
2022-10-05T03:44:12.791Z,1.60
2022-10-05T03:46:45.921Z,3.15
2022-10-05T03:49:34.802Z,4.68
2022-10-05T03:52:05.545Z,1.80
2022-10-05T03:54:35.403Z,3.38
2022-10-05T03:57:09.440Z,2.63
2022-10-05T04:00:05.781Z,3.72
2022-10-05T04:02:36.752Z,1.23
2022-10-05T04:05:16.927Z,1.60
2022-10-05T04:07:52.733Z,4.38
2022-10-05T04:10:24.905Z,2.08
2022-10-05T04:12:57.360Z,1.83
2022-10-05T04:15:32.638Z,4.25
2022-10-05T04:18:08.895Z,2.95
2022-10-05T04:20:44.894Z,3.28
2022-10-05T04:23:20.945Z,2.35
2022-10-05T04:25:57.060Z,3.95
2022-10-05T04:28:32.395Z,3.00
2022-10-05T04:31:02.593Z,1.90
2022-10-05T04:33:32.724Z,1.83
2022-10-05T04:36:14.874Z,4.72
2022-10-05T04:38:54.081Z,3.60
2022-10-05T04:41:24.067Z,5.10
2022-10-05T04:43:54.002Z,1.40
2022-10-05T04:46:42.363Z,2.75
2022-10-05T04:49:15.711Z,2.38
2022-10-05T04:51:51.172Z,2.42
2022-10-05T04:54:21.510Z,3.03
2022-10-05T04:57:05.156Z,3.08
2022-10-05T04:59:51.658Z,5.60
2022-10-05T05:02:39.752Z,3.22
2022-10-05T05:05:27.469Z,1.40
2022-10-05T05:07:57.158Z,4.43
2022-10-05T05:10:26.791Z,1.10
2022-10-05T05:13:05.668Z,5.35
2022-10-05T05:15:41.013Z,3.70
2022-10-05T05:18:27.338Z,1.38
2022-10-05T05:21:00.157Z,2.83
2022-10-05T05:23:41.657Z,3.83
2022-10-05T05:26:17.522Z,4.03
2022-10-05T05:28:57.309Z,5.85
2022-10-05T05:31:46.151Z,2.50
2022-10-05T05:36:45.768Z,2.17
2022-10-05T05:39:27.646Z,2.00
2022-10-05T05:42:00.834Z,4.07
2022-10-05T05:44:34.250Z,3.72
2022-10-05T05:47:13.952Z,2.20
2022-10-05T05:49:47.109Z,1.80
2022-10-05T05:52:17.267Z,3.35
2022-10-05T05:54:48.537Z,2.47
2022-10-05T05:57:31.621Z,3.60
2022-10-05T06:00:26.437Z,4.18
2022-10-05T06:03:02.561Z,2.53
2022-10-05T06:05:35.684Z,1.88
2022-10-05T06:08:09.123Z,2.92
2022-10-05T06:10:46.867Z,2.25
2022-10-05T06:13:21.759Z,7.75
2022-10-05T06:16:14.757Z,1.55
2022-10-05T06:18:46.166Z,2.92
2022-10-05T06:21:22.254Z,4.45
2022-10-05T06:23:56.917Z,5.18
2022-10-05T06:26:26.769Z,3.72
2022-10-05T06:29:01.018Z,4.70
2022-10-05T06:31:34.628Z,3.13
2022-10-05T06:34:36.675Z,6.25
2022-10-05T06:37:07.903Z,3.50
2022-10-05T06:40:01.191Z,2.88
2022-10-05T06:42:49.282Z,4.88
2022-10-05T06:45:22.221Z,9.05
2022-10-05T06:48:05.336Z,5.60
2022-10-05T06:50:38.008Z,3.95
2022-10-05T06:53:08.031Z,3.45
2022-10-05T06:55:43.833Z,4.07
2022-10-05T06:58:28.113Z,3.78
2022-10-05T07:01:06.232Z,3.13
2022-10-05T07:03:36.148Z,2.63
2022-10-05T07:06:22.969Z,2.70
2022-10-05T07:08:58.687Z,2.72
2022-10-05T07:11:34.472Z,2.85
2022-10-05T07:14:16.219Z,3.70
2022-10-05T07:17:04.277Z,1.83
2022-10-05T07:19:36.685Z,4.50
2022-10-05T07:22:22.225Z,0.90
2022-10-05T07:24:59.760Z,3.22
2022-10-05T07:27:31.194Z,4.22
2022-10-05T07:30:08.193Z,2.08
2022-10-05T07:32:41.414Z,3.90
2022-10-05T07:35:32.373Z,5.55
2022-10-05T07:38:03.363Z,2.92
2022-10-05T07:40:39.616Z,1.35
2022-10-05T07:43:18.769Z,2.08
2022-10-05T07:45:54.720Z,6.15
2022-10-05T07:48:45.036Z,4.88
2022-10-05T07:51:15.025Z,10.52
2022-10-05T07:53:50.573Z,6.30
2022-10-05T07:56:24.566Z,6.10
2022-10-05T07:58:54.857Z,5.65
2022-10-05T08:01:26.918Z,3.47
2022-10-05T08:03:58.615Z,5.15
2022-10-05T08:06:34.678Z,4.53
2022-10-05T08:09:10.339Z,1.98
2022-10-05T08:11:42.320Z,2.20
2022-10-05T08:14:41.498Z,4.60
2022-10-05T08:17:14.315Z,3.03
2022-10-05T08:19:49.623Z,2.28
2022-10-05T08:22:37.489Z,6.95
2022-10-05T08:25:25.915Z,5.10
2022-10-05T08:28:11.407Z,6.43
2022-10-05T08:30:50.213Z,5.50
2022-10-05T08:33:20.625Z,3.53
2022-10-05T08:35:57.145Z,9.52
2022-10-05T08:38:28.172Z,5.25
2022-10-05T08:41:04.352Z,4.90
2022-10-05T08:43:39.970Z,5.55
2022-10-05T08:46:15.694Z,15.15
2022-10-05T08:48:57.981Z,6.68
2022-10-05T08:51:36.465Z,10.25
2022-10-05T08:54:12.196Z,8.68
2022-10-05T08:56:45.433Z,7.47
2022-10-05T08:59:20.436Z,9.32
2022-10-05T09:02:13.224Z,10.15
2022-10-05T09:05:01.445Z,14.13
2022-10-05T09:07:31.048Z,12.68
2022-10-05T09:10:26.780Z,8.13
2022-10-05T09:12:56.526Z,10.43
2022-10-05T09:15:37.448Z,10.27
2022-10-05T09:18:13.310Z,8.55
2022-10-05T09:20:53.300Z,4.57
2022-10-05T09:23:41.166Z,3.83
2022-10-05T09:26:25.881Z,8.63
2022-10-05T09:29:01.706Z,13.68
2022-10-05T09:31:34.806Z,9.48
2022-10-05T09:34:23.106Z,10.73
2022-10-05T09:36:55.517Z,16.90
2022-10-05T09:39:36.008Z,10.52
2022-10-05T09:42:21.219Z,13.52
2022-10-05T09:45:05.594Z,18.38
2022-10-05T09:47:38.176Z,14.23
2022-10-05T09:50:10.839Z,13.02
2022-10-05T09:52:43.807Z,13.45
2022-10-05T09:55:13.621Z,12.23
2022-10-05T09:57:53.355Z,12.18
2022-10-05T10:00:23.187Z,13.90
2022-10-05T10:03:06.899Z,12.70
2022-10-05T10:05:36.673Z,14.48
2022-10-05T10:08:09.201Z,12.65
2022-10-05T10:10:49.562Z,17.92
2022-10-05T10:13:55.095Z,16.20
2022-10-05T10:16:31.359Z,18.08
2022-10-05T10:19:32.666Z,11.50
2022-10-05T10:22:17.336Z,15.50
2022-10-05T10:25:05.857Z,21.70
2022-10-05T10:27:54.414Z,18.25
2022-10-05T10:30:44.866Z,19.60
2022-10-05T10:33:29.045Z,19.42
2022-10-05T10:36:44.402Z,12.60
2022-10-05T10:39:39.788Z,13.75
2022-10-05T10:45:49.520Z,15.27
2022-10-05T10:48:28.740Z,11.10
2022-10-05T10:53:53.392Z,20.00
2022-10-05T10:56:43.470Z,16.42
2022-10-05T11:03:04.275Z,15.40
2022-10-05T11:05:48.854Z,13.40
2022-10-05T11:08:45.189Z,13.07
2022-10-05T11:12:22.513Z,14.60
2022-10-05T11:15:12.448Z,22.80
2022-10-05T11:17:52.622Z,38.33
2022-10-05T11:20:49.249Z,48.08
2022-10-05T11:26:40.476Z,21.50
2022-10-05T11:32:25.852Z,17.77
2022-10-05T11:37:45.097Z,33.55
2022-10-05T11:40:31.402Z,22.88
2022-10-05T11:43:09.742Z,24.60
2022-10-05T11:45:43.839Z,33.13
2022-10-05T11:48:15.498Z,27.30
2022-10-05T11:50:53.972Z,24.02
2022-10-05T11:54:02.266Z,18.23
2022-10-05T11:56:42.596Z,17.38
2022-10-05T11:59:16.236Z,19.27
2022-10-05T12:02:01.613Z,29.73
2022-10-05T12:04:41.617Z,21.60
2022-10-05T12:07:23.858Z,22.48
2022-10-05T12:10:16.487Z,19.00
2022-10-05T12:13:04.777Z,23.20
2022-10-05T12:15:46.977Z,15.25
2022-10-05T12:18:21.773Z,20.58
2022-10-05T12:21:10.091Z,15.52
2022-10-05T12:23:44.776Z,12.63
2022-10-05T12:26:23.703Z,16.80
2022-10-05T12:29:05.723Z,11.25
2022-10-05T12:31:44.537Z,10.23
2022-10-05T12:34:36.861Z,15.40
2022-10-05T12:37:32.541Z,9.80
2022-10-05T12:40:21.007Z,7.72
2022-10-05T12:43:03.725Z,9.50
2022-10-05T12:45:57.191Z,12.25
2022-10-05T12:48:36.677Z,9.68
2022-10-05T12:51:16.307Z,6.90
2022-10-05T12:56:38.812Z,7.95
2022-10-05T12:59:24.642Z,7.68
2022-10-05T13:02:09.449Z,9.35
2022-10-05T13:04:59.142Z,9.02
2022-10-05T13:07:54.115Z,3.80
2022-10-05T13:10:46.457Z,10.82
2022-10-05T13:13:30.853Z,9.95
2022-10-05T13:16:06.841Z,9.77
2022-10-05T13:18:44.090Z,10.48
2022-10-05T13:21:16.941Z,9.30
2022-10-05T13:23:55.106Z,11.15
2022-10-05T13:26:36.575Z,12.57
2022-10-05T13:34:05.342Z,13.88
2022-10-05T13:36:38.406Z,14.07
2022-10-05T13:39:18.145Z,13.18
2022-10-05T13:41:53.263Z,16.48
2022-10-05T13:44:23.218Z,17.73
2022-10-05T13:46:56.495Z,20.42
2022-10-05T13:49:31.015Z,16.50
2022-10-05T13:52:17.327Z,22.30
2022-10-05T13:55:05.362Z,23.05
2022-10-05T13:57:35.189Z,17.88
2022-10-05T14:00:06.937Z,18.45
2022-10-05T14:02:41.411Z,17.38
2022-10-05T14:05:18.742Z,21.80
2022-10-05T14:07:51.476Z,20.98
2022-10-05T14:10:38.987Z,18.92
2022-10-05T14:13:30.112Z,28.52
2022-10-05T14:16:01.470Z,15.85
2022-10-05T14:18:32.858Z,16.27
2022-10-05T14:21:04.588Z,20.50
2022-10-05T14:23:34.484Z,12.90
2022-10-05T14:26:04.707Z,16.50
2022-10-05T14:28:35.385Z,12.00
2022-10-05T14:31:06.756Z,11.18
2022-10-05T14:33:36.793Z,7.60
2022-10-05T14:36:09.082Z,7.32
2022-10-05T14:38:53.382Z,10.05
2022-10-05T14:41:29.926Z,7.25
2022-10-05T14:44:08.877Z,8.35
2022-10-05T14:46:40.110Z,6.47
2022-10-05T14:49:27.139Z,7.57
2022-10-05T14:51:57.208Z,8.07
2022-10-05T14:54:32.946Z,9.95
2022-10-05T14:57:08.783Z,8.05
2022-10-05T14:59:45.113Z,6.68
2022-10-05T15:02:28.115Z,15.13
2022-10-05T15:04:57.889Z,19.15
2022-10-05T15:07:27.603Z,17.25
2022-10-05T15:10:15.911Z,18.65
2022-10-05T15:12:48.079Z,13.02
2022-10-05T15:15:20.846Z,17.27
2022-10-05T15:17:53.939Z,15.95
2022-10-05T15:20:25.897Z,15.73
2022-10-05T15:22:55.742Z,17.55
2022-10-05T15:25:48.721Z,14.77
2022-10-05T15:28:38.432Z,20.02
2022-10-05T15:31:08.777Z,15.73
2022-10-05T15:33:47.699Z,14.18
2022-10-05T15:36:21.714Z,21.77
2022-10-05T15:38:51.571Z,17.05
2022-10-05T15:41:23.023Z,14.77
2022-10-05T15:44:06.462Z,12.85
2022-10-05T15:46:43.246Z,10.63
2022-10-05T15:49:17.780Z,11.88
2022-10-05T15:51:51.747Z,11.20
2022-10-05T15:54:45.782Z,15.88
2022-10-05T15:57:23.729Z,13.88
2022-10-05T15:59:56.526Z,15.82
2022-10-05T16:02:31.416Z,23.25
2022-10-05T16:05:13.706Z,18.00
2022-10-05T16:08:06.375Z,17.58
2022-10-05T16:10:36.585Z,13.68
2022-10-05T16:13:16.500Z,18.15
2022-10-05T16:15:50.037Z,28.77
2022-10-05T16:18:20.234Z,28.05
2022-10-05T16:21:06.968Z,34.88
2022-10-05T16:23:36.903Z,24.13
2022-10-05T16:26:19.855Z,20.58
2022-10-05T16:29:04.863Z,25.58
2022-10-05T16:31:38.787Z,24.90
2022-10-05T16:34:08.782Z,19.35
2022-10-05T16:36:41.883Z,21.33
2022-10-05T16:39:18.960Z,20.58
2022-10-05T16:42:04.046Z,28.90
2022-10-05T16:44:42.954Z,35.80
2022-10-05T16:47:32.554Z,23.38
2022-10-05T16:50:18.791Z,16.90
2022-10-05T16:52:50.358Z,14.02
2022-10-05T16:55:29.847Z,12.05
2022-10-05T16:57:59.632Z,10.15
2022-10-05T17:00:47.568Z,12.43
2022-10-05T17:03:20.257Z,12.15
2022-10-05T17:06:09.949Z,7.93
2022-10-05T17:08:51.311Z,5.68
2022-10-05T17:11:36.830Z,11.50
2022-10-05T17:14:06.680Z,9.55
2022-10-05T17:16:45.604Z,7.38
2022-10-05T17:19:19.404Z,10.73
2022-10-05T17:21:52.934Z,9.70
2022-10-05T17:24:26.042Z,13.00
2022-10-05T17:27:00.932Z,18.50
2022-10-05T17:29:52.956Z,15.90
2022-10-05T17:32:22.971Z,11.50
2022-10-05T17:35:14.743Z,16.25
2022-10-05T17:38:06.953Z,15.90
2022-10-05T17:40:37.918Z,7.95
2022-10-05T17:43:19.729Z,5.15
2022-10-05T17:45:49.372Z,8.13
2022-10-05T17:48:38.055Z,9.85
2022-10-05T17:51:38.032Z,6.75
2022-10-05T17:54:45.757Z,6.97
2022-10-05T17:57:15.379Z,14.05
2022-10-05T17:59:51.969Z,10.57
2022-10-05T18:02:38.848Z,8.65
2022-10-05T18:05:16.014Z,8.18
2022-10-05T18:07:50.086Z,9.68
2022-10-05T18:10:30.466Z,8.02
2022-10-05T18:13:02.943Z,13.57
2022-10-05T18:15:32.732Z,14.98
2022-10-05T18:18:22.943Z,11.52
2022-10-05T18:21:20.544Z,13.48
2022-10-05T18:24:02.538Z,12.02
2022-10-05T18:26:47.871Z,19.52
2022-10-05T18:29:53.954Z,16.75
2022-10-05T18:32:29.940Z,20.38
2022-10-05T18:35:02.298Z,13.40
2022-10-05T18:37:50.521Z,17.65
2022-10-05T18:40:22.737Z,12.98
2022-10-05T18:42:58.571Z,18.48
2022-10-05T18:45:46.846Z,19.23
2022-10-05T18:48:35.772Z,11.27
2022-10-05T18:51:25.112Z,7.65
2022-10-05T18:54:15.129Z,9.48
2022-10-05T18:56:46.696Z,17.52
2022-10-05T18:59:36.401Z,8.35
2022-10-05T19:02:25.996Z,8.15
2022-10-05T19:05:00.774Z,11.27
2022-10-05T19:07:42.815Z,18.77
2022-10-05T19:10:12.499Z,7.45
2022-10-05T19:12:51.265Z,6.57
2022-10-05T19:15:24.327Z,15.50
2022-10-05T19:18:12.733Z,8.23
2022-10-05T19:21:11.674Z,8.95
2022-10-05T19:23:50.519Z,13.88
2022-10-05T19:26:30.929Z,15.70
2022-10-05T19:29:17.297Z,17.98
2022-10-05T19:31:51.190Z,28.63
2022-10-05T19:34:36.487Z,22.35
2022-10-05T19:37:15.840Z,21.85
2022-10-05T19:40:08.863Z,22.00
2022-10-05T19:42:48.939Z,19.95
2022-10-05T19:47:49.651Z,22.42
2022-10-05T19:50:23.663Z,14.65
2022-10-05T19:52:53.885Z,11.35
2022-10-05T19:55:27.674Z,8.57
2022-10-05T19:57:58.355Z,14.30
2022-10-05T20:00:29.743Z,8.93
2022-10-05T20:03:11.834Z,10.27
2022-10-05T20:05:42.128Z,10.18
2022-10-05T20:08:18.621Z,12.18
2022-10-05T20:10:48.942Z,13.52
2022-10-05T20:13:22.306Z,13.75
2022-10-05T20:16:29.241Z,9.35
2022-10-05T20:19:17.204Z,12.05
2022-10-05T20:21:53.938Z,7.80
2022-10-05T20:24:27.209Z,11.95
2022-10-05T20:27:03.951Z,9.55
2022-10-05T20:29:40.572Z,11.93
2022-10-05T20:32:11.393Z,13.65
2022-10-05T20:34:44.510Z,8.68
2022-10-05T20:37:17.787Z,8.80
2022-10-05T20:39:49.518Z,11.77
2022-10-05T20:42:19.578Z,13.00
2022-10-05T20:44:55.773Z,9.95
2022-10-05T20:47:26.845Z,11.82
2022-10-05T20:49:56.688Z,15.75
2022-10-05T20:52:26.324Z,12.23
2022-10-05T20:54:59.802Z,13.02
2022-10-05T20:57:29.502Z,15.60
2022-10-05T20:59:59.253Z,15.93
2022-10-05T21:02:30.052Z,14.63
2022-10-05T21:04:59.800Z,10.07
2022-10-05T21:07:29.673Z,12.45
2022-10-05T21:09:59.658Z,15.82
2022-10-05T21:12:29.607Z,10.98
2022-10-05T21:15:01.192Z,11.82
2022-10-05T21:17:30.959Z,13.57
2022-10-05T21:20:01.331Z,9.88
2022-10-05T21:22:30.991Z,14.10
2022-10-05T21:25:00.841Z,10.38
2022-10-05T21:27:31.259Z,17.30
2022-10-05T21:30:00.830Z,11.15
2022-10-05T21:32:30.927Z,15.25
2022-10-05T21:35:00.622Z,11.52
2022-10-05T21:37:30.489Z,16.25
2022-10-05T21:40:00.174Z,19.13
2022-10-05T21:42:29.836Z,10.48
2022-10-05T21:44:59.457Z,10.98
2022-10-05T21:47:29.398Z,18.35
2022-10-05T21:49:59.056Z,15.55
2022-10-05T21:52:28.664Z,14.00
2022-10-05T21:54:58.368Z,13.23
2022-10-05T21:57:28.225Z,13.52
2022-10-05T21:59:57.794Z,13.48
2022-10-05T22:02:27.616Z,16.65
2022-10-05T22:04:59.324Z,10.07
2022-10-05T22:07:30.314Z,7.80
2022-10-05T22:10:00.152Z,14.13
2022-10-05T22:12:30.540Z,11.27
2022-10-05T22:15:00.487Z,5.57
2022-10-05T22:17:32.578Z,9.98
2022-10-05T22:20:02.589Z,11.63
2022-10-05T22:22:32.501Z,10.57
2022-10-05T22:25:02.137Z,8.40
2022-10-05T22:27:32.085Z,8.27
2022-10-05T22:30:02.766Z,6.85
2022-10-05T22:32:32.891Z,6.80
2022-10-05T22:35:02.581Z,10.90
2022-10-05T22:37:34.891Z,10.43
2022-10-05T22:40:04.854Z,8.68
2022-10-05T22:42:35.098Z,7.15
2022-10-05T22:45:04.775Z,11.35
2022-10-05T22:47:34.368Z,6.38
2022-10-05T22:50:05.111Z,8.88
2022-10-05T22:52:35.146Z,14.05
2022-10-05T22:55:04.732Z,9.32
2022-10-05T22:57:41.235Z,8.00
2022-10-05T23:00:11.570Z,8.05
2022-10-05T23:02:42.450Z,10.32
2022-10-05T23:05:14.720Z,10.88
2022-10-05T23:07:45.349Z,10.38
2022-10-05T23:10:16.137Z,13.00
2022-10-05T23:12:45.953Z,9.98
2022-10-05T23:15:16.042Z,7.85
2022-10-05T23:17:48.358Z,11.13
2022-10-05T23:20:22.391Z,8.50
2022-10-05T23:22:55.863Z,9.48
2022-10-05T23:25:28.952Z,13.80
2022-10-05T23:27:58.925Z,12.77
2022-10-05T23:30:29.038Z,11.93
2022-10-05T23:32:59.563Z,12.73
2022-10-05T23:35:29.607Z,18.08
2022-10-05T23:37:59.883Z,17.05
2022-10-05T23:40:30.130Z,14.30
2022-10-05T23:43:00.725Z,13.68
2022-10-05T23:45:30.488Z,14.77
2022-10-05T23:48:00.121Z,11.57
2022-10-05T23:50:29.798Z,18.55
2022-10-05T23:52:59.415Z,17.48
2022-10-05T23:55:29.231Z,10.00
2022-10-05T23:57:59.016Z,15.10
